Terminal Aerodrome Forecast
Issued by NWS Dodge City, KS

Home | Current Version | Previous Version | Graphics & Text | Print | Product List | Glossary Off
Versions: 1 2 3 4 5 6 7 8 9 10 11 12 13 14 15 16 17 18 19 20 21 22 23 24 25 26 27 28 29 30 31 32 33 34 35 36 37 38 39 40 41 42

375
FTUS43 KDDC 231132
TAFDDC
TAF
KDDC 231132Z 2312/2412 10012KT P6SM BKN110
     FM231800 13015G23KT P6SM FEW250
     FM232000 21019G27KT P6SM FEW250
     FM240000 25015G23KT P6SM FEW250
     FM240200 32021G29KT P6SM FEW200
     FM240600 32019G27KT P6SM FEW050=

USA.gov is the U.S. government's official web portal to all federal, state and local government web resources and services.